createdAt,value
2023-05-23T00:00:13.566Z,51.55
2023-05-23T00:00:45.105Z,52.00
2023-05-23T00:01:16.637Z,51.61
2023-05-23T00:01:48.181Z,51.75
2023-05-23T00:02:19.881Z,51.98
2023-05-23T00:02:51.567Z,51.70
2023-05-23T00:03:23.352Z,51.86
2023-05-23T00:03:55.090Z,51.49
2023-05-23T00:04:26.888Z,51.64
2023-05-23T00:04:58.649Z,51.70
2023-05-23T00:05:30.362Z,51.47
2023-05-23T00:06:01.984Z,51.74
2023-05-23T00:06:33.497Z,51.83
2023-05-23T00:07:05.112Z,51.65
2023-05-23T00:07:36.681Z,51.60
2023-05-23T00:08:08.208Z,51.71
2023-05-23T00:08:39.668Z,51.64
2023-05-23T00:09:11.305Z,51.31
2023-05-23T00:09:42.806Z,51.53
2023-05-23T00:10:14.407Z,51.74
2023-05-23T00:10:45.905Z,51.56
2023-05-23T00:11:17.476Z,51.72
2023-05-23T00:11:48.999Z,51.43
2023-05-23T00:12:21.278Z,51.55
2023-05-23T00:12:52.873Z,51.64
2023-05-23T00:13:24.416Z,51.34
2023-05-23T00:13:56.288Z,51.65
2023-05-23T00:14:28.213Z,51.63
2023-05-23T00:14:59.743Z,51.42
2023-05-23T00:15:31.284Z,51.31
2023-05-23T00:16:02.841Z,51.25
2023-05-23T00:16:34.457Z,51.67
2023-05-23T00:17:06.249Z,51.24
2023-05-23T00:17:37.933Z,51.34
2023-05-23T00:18:09.844Z,51.34
2023-05-23T00:18:41.364Z,51.64
2023-05-23T00:19:13.006Z,51.28
2023-05-23T00:20:57.275Z,51.28
2023-05-23T00:21:28.642Z,51.31
2023-05-23T00:22:00.164Z,51.42
2023-05-23T00:22:31.747Z,51.62
2023-05-23T00:23:04.009Z,51.50
2023-05-23T00:23:35.521Z,51.29
2023-05-23T00:24:07.055Z,51.57
2023-05-23T00:24:38.575Z,51.50
2023-05-23T00:25:10.161Z,51.56
2023-05-23T00:25:41.806Z,51.67
2023-05-23T00:26:13.370Z,51.19
2023-05-23T00:26:45.124Z,51.33
2023-05-23T00:27:16.567Z,51.22
2023-05-23T00:27:48.073Z,51.34
2023-05-23T00:28:19.572Z,51.58
2023-05-23T00:28:51.004Z,51.31
2023-05-23T00:29:22.450Z,51.17
2023-05-23T00:29:54.776Z,51.61
2023-05-23T00:30:26.602Z,51.26
2023-05-23T00:30:58.109Z,51.13
2023-05-23T00:31:29.694Z,51.17
2023-05-23T00:32:01.185Z,51.34
2023-05-23T00:32:32.744Z,50.94
2023-05-23T00:33:04.462Z,51.14
2023-05-23T00:33:36.001Z,51.28
2023-05-23T00:34:07.490Z,51.30
2023-05-23T00:34:39.029Z,51.42
2023-05-23T00:35:10.526Z,51.34
2023-05-23T00:35:42.350Z,51.52
2023-05-23T00:36:13.953Z,51.54
2023-05-23T00:36:45.404Z,51.24
2023-05-23T00:37:16.928Z,51.51
2023-05-23T00:37:48.412Z,51.26
2023-05-23T00:38:19.907Z,51.53
2023-05-23T00:38:51.389Z,51.42
2023-05-23T00:39:22.842Z,51.42
2023-05-23T00:39:54.341Z,51.13
2023-05-23T00:40:25.799Z,51.18
2023-05-23T00:40:57.362Z,51.15
2023-05-23T00:41:28.815Z,51.12
2023-05-23T00:42:03.783Z,51.36
2023-05-23T00:42:35.263Z,50.97
2023-05-23T00:43:06.754Z,51.07
2023-05-23T00:43:38.213Z,51.24
2023-05-23T00:44:09.731Z,51.11
2023-05-23T00:44:41.209Z,51.03
2023-05-23T00:45:12.820Z,51.03
2023-05-23T00:45:44.282Z,51.33
2023-05-23T00:46:15.758Z,51.46
2023-05-23T00:46:47.676Z,51.15
2023-05-23T00:47:19.218Z,51.06
2023-05-23T00:47:50.748Z,50.98
2023-05-23T00:48:22.216Z,51.30
2023-05-23T00:48:53.902Z,51.17
2023-05-23T00:49:25.437Z,51.20
2023-05-23T00:49:56.946Z,51.11
2023-05-23T00:50:28.398Z,50.85
2023-05-23T00:51:00.290Z,51.34
2023-05-23T00:51:31.901Z,51.32
2023-05-23T00:52:03.376Z,50.85
2023-05-23T00:52:34.987Z,51.31
2023-05-23T00:53:06.484Z,51.23
2023-05-23T00:53:38.024Z,51.06
2023-05-23T00:54:09.547Z,51.22
2023-05-23T00:54:41.034Z,51.39
2023-05-23T00:55:12.661Z,51.26
2023-05-23T00:55:44.484Z,50.94
2023-05-23T00:56:15.917Z,51.08
2023-05-23T00:56:47.393Z,50.95
2023-05-23T00:57:18.855Z,50.94
2023-05-23T00:57:50.354Z,50.73
2023-05-23T00:58:21.851Z,51.08
2023-05-23T00:58:54.260Z,51.00
2023-05-23T00:59:26.054Z,50.85
2023-05-23T00:59:57.660Z,50.97
2023-05-23T01:00:29.409Z,50.91
2023-05-23T01:01:01.080Z,50.85
2023-05-23T01:01:32.597Z,51.22
2023-05-23T01:02:04.222Z,50.76
2023-05-23T01:02:36.477Z,50.81
2023-05-23T01:03:08.348Z,50.87
2023-05-23T01:03:40.049Z,50.83
2023-05-23T01:04:11.710Z,51.20
2023-05-23T01:04:43.302Z,50.90
2023-05-23T01:05:15.172Z,51.10
2023-05-23T01:05:46.612Z,51.01
2023-05-23T01:06:18.050Z,51.32
2023-05-23T01:06:49.577Z,50.87
2023-05-23T01:07:21.336Z,51.23
2023-05-23T01:07:52.835Z,51.24
2023-05-23T01:08:24.349Z,50.90
2023-05-23T01:08:55.777Z,50.93
2023-05-23T01:09:27.516Z,51.12
2023-05-23T01:09:59.036Z,50.96
2023-05-23T01:10:30.828Z,50.96
2023-05-23T01:11:04.088Z,51.25
2023-05-23T01:11:38.223Z,50.74
2023-05-23T01:12:14.173Z,50.93
2023-05-23T01:12:45.576Z,50.96
2023-05-23T01:13:46.063Z,50.83
2023-05-23T01:14:26.552Z,50.89
2023-05-23T01:15:03.771Z,51.03
2023-05-23T01:15:53.206Z,50.80
2023-05-23T01:16:42.836Z,50.82
2023-05-23T01:17:17.780Z,50.82
2023-05-23T01:17:58.099Z,50.78
2023-05-23T01:18:29.590Z,50.57
2023-05-23T01:19:16.280Z,50.59
2023-05-23T01:20:00.278Z,50.88
2023-05-23T01:20:34.484Z,50.96
2023-05-23T01:21:15.855Z,50.86
2023-05-23T01:21:47.316Z,50.48
2023-05-23T01:22:23.629Z,50.77
2023-05-23T01:22:55.047Z,50.96
2023-05-23T01:23:32.272Z,50.66
2023-05-23T01:24:06.234Z,50.56
2023-05-23T01:24:57.581Z,50.48
2023-05-23T01:25:49.323Z,50.70
2023-05-23T01:26:20.744Z,50.63
2023-05-23T01:26:57.848Z,50.61
2023-05-23T01:27:44.670Z,50.70
2023-05-23T01:28:22.044Z,50.82
2023-05-23T01:28:57.630Z,50.66
2023-05-23T01:29:29.689Z,50.21
2023-05-23T01:30:01.185Z,50.48
2023-05-23T01:30:32.972Z,50.45
2023-05-23T01:31:04.627Z,50.18
2023-05-23T01:31:54.812Z,50.40
2023-05-23T01:32:26.426Z,50.30
2023-05-23T01:32:57.969Z,50.37
2023-05-23T01:33:29.537Z,50.08
2023-05-23T01:34:01.154Z,50.46
2023-05-23T01:34:32.615Z,50.06
2023-05-23T01:35:04.335Z,50.12
2023-05-23T01:35:35.721Z,50.27
2023-05-23T01:36:07.407Z,50.28
2023-05-23T01:36:42.343Z,49.89
2023-05-23T01:37:13.866Z,50.36
2023-05-23T01:37:45.312Z,50.41
2023-05-23T01:38:16.866Z,50.17
2023-05-23T01:38:48.362Z,50.17
2023-05-23T01:39:20.051Z,50.18
2023-05-23T01:39:51.572Z,50.27
2023-05-23T01:40:23.154Z,50.16
2023-05-23T01:40:54.588Z,50.37
2023-05-23T01:41:26.029Z,50.14
2023-05-23T01:41:57.471Z,49.94
2023-05-23T01:42:28.957Z,50.13
2023-05-23T01:43:00.465Z,50.32
2023-05-23T01:43:32.047Z,49.97
2023-05-23T01:44:03.740Z,49.93
2023-05-23T01:44:35.271Z,49.99
2023-05-23T01:45:07.070Z,50.10
2023-05-23T01:45:38.645Z,49.93
2023-05-23T01:46:10.432Z,50.10
2023-05-23T01:46:41.935Z,50.03
2023-05-23T01:47:13.435Z,50.03
2023-05-23T01:47:45.001Z,49.70
2023-05-23T01:48:16.532Z,49.52
2023-05-23T01:48:48.193Z,49.68
2023-05-23T01:49:19.694Z,49.55
2023-05-23T01:49:53.954Z,50.04
2023-05-23T01:50:25.405Z,49.74
2023-05-23T01:50:56.854Z,50.07
2023-05-23T01:51:28.404Z,50.04
2023-05-23T01:52:00.651Z,49.73
2023-05-23T01:52:32.183Z,49.53
2023-05-23T01:53:03.645Z,49.85
2023-05-23T01:53:35.280Z,49.72
2023-05-23T01:54:06.957Z,49.79
2023-05-23T01:54:38.459Z,49.65
2023-05-23T01:55:10.034Z,49.65
2023-05-23T01:55:41.848Z,49.88
2023-05-23T01:56:13.573Z,49.96
2023-05-23T01:56:45.093Z,49.53
2023-05-23T01:57:16.596Z,49.93
2023-05-23T01:57:50.043Z,49.85
2023-05-23T01:58:21.677Z,49.84
2023-05-23T01:58:53.244Z,49.66
2023-05-23T01:59:24.766Z,49.39
2023-05-23T01:59:56.463Z,49.34
2023-05-23T02:00:27.923Z,49.52
2023-05-23T02:00:59.466Z,49.44
2023-05-23T02:01:31.130Z,49.39
2023-05-23T02:02:02.676Z,49.84
2023-05-23T02:02:34.281Z,49.82
2023-05-23T02:03:06.101Z,49.63
2023-05-23T02:03:37.711Z,49.53
2023-05-23T02:04:09.289Z,49.80
2023-05-23T02:04:40.734Z,49.47
2023-05-23T02:05:12.221Z,49.77
2023-05-23T02:05:44.091Z,49.60
2023-05-23T02:06:15.766Z,49.87
2023-05-23T02:06:47.172Z,49.79
2023-05-23T02:07:18.646Z,49.86
2023-05-23T02:07:50.104Z,49.78
2023-05-23T02:08:21.740Z,49.66
2023-05-23T02:08:53.211Z,49.50
2023-05-23T02:09:24.647Z,49.63
2023-05-23T02:09:56.079Z,49.77
2023-05-23T02:10:27.560Z,49.43
2023-05-23T02:10:59.109Z,49.50
2023-05-23T02:11:30.692Z,49.56
2023-05-23T02:12:02.140Z,49.85
2023-05-23T02:12:33.560Z,49.82
2023-05-23T02:13:05.146Z,49.93
2023-05-23T02:13:36.675Z,49.70
2023-05-23T02:14:08.128Z,49.71
2023-05-23T02:14:39.620Z,49.65
2023-05-23T02:15:11.240Z,49.46
2023-05-23T02:15:42.832Z,49.95
2023-05-23T02:16:14.410Z,49.68
2023-05-23T02:16:46.002Z,49.63
2023-05-23T02:17:17.835Z,49.80
2023-05-23T02:17:49.466Z,49.83
2023-05-23T02:18:21.178Z,49.85
2023-05-23T02:18:52.740Z,49.74
2023-05-23T02:19:24.351Z,49.89
2023-05-23T02:19:55.818Z,49.69
2023-05-23T02:20:27.228Z,49.90
2023-05-23T02:20:58.679Z,49.73
2023-05-23T02:21:30.192Z,49.93
2023-05-23T02:22:01.840Z,50.03
2023-05-23T02:22:33.329Z,49.81
2023-05-23T02:23:05.059Z,49.92
2023-05-23T02:23:36.719Z,49.70
2023-05-23T02:24:08.196Z,49.56
2023-05-23T02:24:39.938Z,49.67
2023-05-23T02:25:11.367Z,50.01
2023-05-23T02:25:43.197Z,50.00
2023-05-23T02:26:14.784Z,50.12
2023-05-23T02:26:46.268Z,50.04
2023-05-23T02:27:17.981Z,50.08
2023-05-23T02:27:49.420Z,49.93
2023-05-23T02:28:21.205Z,49.85
2023-05-23T02:28:52.975Z,49.99
2023-05-23T02:29:24.433Z,49.92
2023-05-23T02:29:56.003Z,49.83
2023-05-23T02:30:27.378Z,50.03
2023-05-23T02:30:58.869Z,49.85
2023-05-23T02:31:30.855Z,50.06
2023-05-23T02:32:02.347Z,50.18
2023-05-23T02:32:33.834Z,50.16
2023-05-23T02:33:07.952Z,50.06
2023-05-23T02:33:39.607Z,49.71
2023-05-23T02:34:11.105Z,49.88
2023-05-23T02:34:42.501Z,49.80
2023-05-23T02:35:13.962Z,50.11
2023-05-23T02:35:45.495Z,49.92
2023-05-23T02:36:16.974Z,50.15
2023-05-23T02:36:48.554Z,50.09
2023-05-23T02:37:20.048Z,50.23
2023-05-23T02:37:51.553Z,50.17
2023-05-23T02:38:23.009Z,50.14
2023-05-23T02:38:54.685Z,49.89
2023-05-23T02:39:26.866Z,50.17
2023-05-23T02:39:58.523Z,50.24
2023-05-23T02:40:30.044Z,50.16
2023-05-23T02:41:01.573Z,49.93
2023-05-23T02:41:33.037Z,50.09
2023-05-23T02:42:04.821Z,50.35
2023-05-23T02:42:36.624Z,50.33
2023-05-23T02:43:08.110Z,49.97
2023-05-23T02:43:39.575Z,50.05
2023-05-23T02:44:11.156Z,50.10
2023-05-23T02:44:42.664Z,49.98
2023-05-23T02:45:14.126Z,50.05
2023-05-23T02:45:45.602Z,50.19
2023-05-23T02:46:17.123Z,49.85
2023-05-23T02:46:48.578Z,50.15
2023-05-23T02:47:20.317Z,50.09
2023-05-23T02:47:51.856Z,50.29
2023-05-23T02:48:23.558Z,49.88
2023-05-23T02:48:55.258Z,49.90
2023-05-23T02:49:26.762Z,50.16
2023-05-23T02:49:58.287Z,50.25
2023-05-23T02:50:29.724Z,50.34
2023-05-23T02:51:01.259Z,49.96
2023-05-23T02:51:32.726Z,50.00
2023-05-23T02:52:04.317Z,49.92
2023-05-23T02:52:35.762Z,49.96
2023-05-23T02:53:07.242Z,49.84
2023-05-23T02:53:38.693Z,50.38
2023-05-23T02:54:10.177Z,50.04
2023-05-23T02:54:41.655Z,50.32
2023-05-23T02:55:13.227Z,50.27
2023-05-23T02:55:44.752Z,50.11
2023-05-23T02:56:16.165Z,50.29
2023-05-23T02:56:47.679Z,50.26
2023-05-23T02:57:19.203Z,50.01
2023-05-23T02:57:50.708Z,50.41
2023-05-23T02:58:22.189Z,50.18
2023-05-23T02:58:53.676Z,50.18
2023-05-23T02:59:25.161Z,50.17
2023-05-23T02:59:56.677Z,49.82
2023-05-23T03:00:28.158Z,50.26
2023-05-23T03:00:59.671Z,50.26
2023-05-23T03:01:31.179Z,50.13
2023-05-23T03:02:02.736Z,50.16
2023-05-23T03:02:34.388Z,50.18
2023-05-23T03:03:06.126Z,50.02
2023-05-23T03:03:37.907Z,50.04
2023-05-23T03:04:09.517Z,49.98
2023-05-23T03:04:41.036Z,50.18
2023-05-23T03:05:12.604Z,50.21
2023-05-23T03:05:44.170Z,50.09
2023-05-23T03:06:15.847Z,50.04
2023-05-23T03:06:47.430Z,50.33
2023-05-23T03:07:27.525Z,50.07
2023-05-23T03:08:00.377Z,50.27
2023-05-23T03:08:31.940Z,50.37
2023-05-23T03:09:03.678Z,50.35
2023-05-23T03:09:35.367Z,50.17
2023-05-23T03:10:07.453Z,50.05
2023-05-23T03:10:39.080Z,50.16
2023-05-23T03:11:10.732Z,50.09
2023-05-23T03:11:42.821Z,50.01
2023-05-23T03:12:14.466Z,49.98
2023-05-23T03:12:46.653Z,50.26
2023-05-23T03:13:18.497Z,50.12
2023-05-23T03:13:50.084Z,50.10
2023-05-23T03:14:21.733Z,50.04
2023-05-23T03:14:53.440Z,50.15
2023-05-23T03:15:25.050Z,50.01
2023-05-23T03:15:56.745Z,50.24
2023-05-23T03:16:28.419Z,49.98
2023-05-23T03:17:00.054Z,50.25
2023-05-23T03:17:31.674Z,50.26
2023-05-23T03:18:03.452Z,50.15
2023-05-23T03:18:35.078Z,49.92
2023-05-23T03:19:06.770Z,50.30
2023-05-23T03:19:38.460Z,49.89
2023-05-23T03:20:10.485Z,50.05
2023-05-23T03:20:42.316Z,50.24
2023-05-23T03:21:13.883Z,50.13
2023-05-23T03:21:45.519Z,50.07
2023-05-23T03:22:17.132Z,50.08
2023-05-23T03:22:48.800Z,50.24
2023-05-23T03:23:20.453Z,50.26
2023-05-23T03:23:52.125Z,50.19
2023-05-23T03:24:23.744Z,50.02
2023-05-23T03:24:55.393Z,49.77
2023-05-23T03:25:27.085Z,50.04
2023-05-23T03:25:58.701Z,49.78
2023-05-23T03:26:30.343Z,49.95
2023-05-23T03:27:02.074Z,49.72
2023-05-23T03:27:33.791Z,49.91
2023-05-23T03:28:05.392Z,50.20
2023-05-23T03:28:37.000Z,50.38
2023-05-23T03:29:08.632Z,49.87
2023-05-23T03:29:40.455Z,49.91
2023-05-23T03:30:12.307Z,50.02
2023-05-23T03:30:44.081Z,50.22
2023-05-23T03:31:15.744Z,50.26
2023-05-23T03:31:47.370Z,50.25
2023-05-23T03:32:19.078Z,50.36
2023-05-23T03:32:50.815Z,50.11
2023-05-23T03:33:22.388Z,50.18
2023-05-23T03:33:53.984Z,50.26
2023-05-23T03:34:25.828Z,50.28
2023-05-23T03:34:57.481Z,50.19
2023-05-23T03:35:29.049Z,50.12
2023-05-23T03:36:00.740Z,50.05
2023-05-23T03:36:32.503Z,50.12
2023-05-23T03:37:04.204Z,49.88
2023-05-23T03:37:35.789Z,50.18
2023-05-23T03:38:07.515Z,50.15
2023-05-23T03:38:39.170Z,50.15
2023-05-23T03:39:10.838Z,49.81
2023-05-23T03:39:42.492Z,50.13
2023-05-23T03:40:14.173Z,50.11
2023-05-23T03:40:45.825Z,50.18
2023-05-23T03:41:17.469Z,50.25
2023-05-23T03:41:49.381Z,49.99
2023-05-23T03:42:21.389Z,50.32
2023-05-23T03:43:02.496Z,50.07
2023-05-23T03:43:34.076Z,49.97
2023-05-23T03:44:05.789Z,50.12
2023-05-23T03:44:37.436Z,49.89
2023-05-23T03:45:09.096Z,49.97
2023-05-23T03:45:41.032Z,50.21
2023-05-23T03:46:12.973Z,50.13
2023-05-23T03:46:44.709Z,50.04
2023-05-23T03:47:16.289Z,49.91
2023-05-23T03:47:47.931Z,49.94
2023-05-23T03:48:19.667Z,50.19
2023-05-23T03:48:51.240Z,49.80
2023-05-23T03:49:22.830Z,50.11
2023-05-23T03:49:54.461Z,49.87
2023-05-23T03:50:26.074Z,49.96
2023-05-23T03:50:57.648Z,50.13
2023-05-23T03:51:29.336Z,50.01
2023-05-23T03:52:01.021Z,49.75
2023-05-23T03:52:32.662Z,50.20
2023-05-23T03:53:04.309Z,49.85
2023-05-23T03:53:36.760Z,49.94
2023-05-23T03:54:08.535Z,50.05
2023-05-23T03:54:40.122Z,50.15
2023-05-23T03:55:11.829Z,50.04
2023-05-23T03:55:43.531Z,50.04
2023-05-23T03:56:15.249Z,49.82
2023-05-23T03:56:46.916Z,49.77
2023-05-23T03:57:18.537Z,49.77
2023-05-23T03:57:50.354Z,49.81
2023-05-23T03:58:21.945Z,49.89
2023-05-23T03:58:53.558Z,49.81
2023-05-23T03:59:25.249Z,49.83
2023-05-23T03:59:56.827Z,49.76
2023-05-23T04:00:28.440Z,50.15
2023-05-23T04:01:01.884Z,49.94
2023-05-23T04:01:33.720Z,50.04
2023-05-23T04:02:05.541Z,49.77
2023-05-23T04:02:37.278Z,50.33
2023-05-23T04:03:09.394Z,50.14
2023-05-23T04:03:41.225Z,50.18
2023-05-23T04:04:12.990Z,49.89
2023-05-23T04:04:44.792Z,50.30
2023-05-23T04:05:16.529Z,50.13
2023-05-23T04:05:48.196Z,50.13
2023-05-23T04:06:19.827Z,50.06
2023-05-23T04:06:51.486Z,50.21
2023-05-23T04:07:23.094Z,50.19
2023-05-23T04:07:54.705Z,50.03
2023-05-23T04:08:26.770Z,50.54
2023-05-23T04:08:58.309Z,50.25
2023-05-23T04:09:29.873Z,50.28
2023-05-23T04:10:01.465Z,49.89
2023-05-23T04:10:33.110Z,50.16
2023-05-23T04:11:04.765Z,50.26
2023-05-23T04:11:36.324Z,49.89
2023-05-23T04:12:08.072Z,50.00
2023-05-23T04:12:39.819Z,50.37
2023-05-23T04:13:11.503Z,50.15
2023-05-23T04:13:43.147Z,49.99
2023-05-23T04:14:14.771Z,49.76
2023-05-23T04:14:46.354Z,50.00
2023-05-23T04:15:18.063Z,49.63
2023-05-23T04:15:49.775Z,49.65
2023-05-23T04:16:21.612Z,49.57
2023-05-23T04:16:53.316Z,49.96
2023-05-23T04:17:25.190Z,49.73
2023-05-23T04:17:56.884Z,49.52
2023-05-23T04:18:28.534Z,49.88
2023-05-23T04:19:00.210Z,49.61
2023-05-23T04:19:31.969Z,49.70
2023-05-23T04:20:03.723Z,49.85
2023-05-23T04:20:35.370Z,50.00
2023-05-23T04:21:07.104Z,49.67
2023-05-23T04:21:38.703Z,50.02
2023-05-23T04:22:10.249Z,50.01
2023-05-23T04:22:41.782Z,50.15
2023-05-23T04:23:13.494Z,50.01
2023-05-23T04:23:45.031Z,50.01
2023-05-23T04:24:16.911Z,49.96
2023-05-23T04:24:48.435Z,49.98
2023-05-23T04:25:20.002Z,49.92
2023-05-23T04:25:51.450Z,50.14
2023-05-23T04:26:22.886Z,50.16
2023-05-23T04:26:54.338Z,50.15
2023-05-23T04:27:25.878Z,50.08
2023-05-23T04:27:57.424Z,50.04
2023-05-23T04:28:28.950Z,50.00
2023-05-23T04:29:00.503Z,50.11
2023-05-23T04:29:32.042Z,50.28
2023-05-23T04:30:03.633Z,50.21
2023-05-23T04:30:35.149Z,49.85
2023-05-23T04:31:06.680Z,49.91
2023-05-23T04:31:38.446Z,49.86
2023-05-23T04:32:10.041Z,50.06
2023-05-23T04:32:42.809Z,50.17
2023-05-23T04:33:14.346Z,50.19
2023-05-23T04:33:45.859Z,50.34
2023-05-23T04:34:17.525Z,50.10
2023-05-23T04:34:49.002Z,49.88
2023-05-23T04:35:20.666Z,49.72
2023-05-23T04:35:52.132Z,50.22
2023-05-23T04:36:23.724Z,49.90
2023-05-23T04:36:55.178Z,49.92
2023-05-23T04:37:26.604Z,50.09
2023-05-23T04:37:58.139Z,50.32
2023-05-23T04:38:29.661Z,50.22
2023-05-23T04:39:01.165Z,50.11
2023-05-23T04:39:32.629Z,49.96
2023-05-23T04:40:04.308Z,50.11
2023-05-23T04:40:36.010Z,50.29
2023-05-23T04:41:07.796Z,50.19
2023-05-23T04:41:39.395Z,50.04
2023-05-23T04:42:11.935Z,50.19
2023-05-23T04:42:44.405Z,50.08
2023-05-23T04:43:15.889Z,50.27
2023-05-23T04:43:47.384Z,50.23
2023-05-23T04:44:18.895Z,50.21
2023-05-23T04:44:50.670Z,50.05
2023-05-23T04:45:22.189Z,50.20
2023-05-23T04:45:53.768Z,49.78
2023-05-23T04:46:25.361Z,49.88
2023-05-23T04:46:56.990Z,50.30
2023-05-23T04:47:29.038Z,50.05
2023-05-23T04:48:00.523Z,50.00
2023-05-23T04:48:32.050Z,50.02
2023-05-23T04:49:03.527Z,49.92
2023-05-23T04:49:36.157Z,50.27
2023-05-23T04:50:07.715Z,50.03
2023-05-23T04:50:39.313Z,50.14
2023-05-23T04:51:10.779Z,50.27
2023-05-23T04:51:42.505Z,50.22
2023-05-23T04:52:13.980Z,50.20
2023-05-23T04:52:45.444Z,50.17
2023-05-23T04:53:16.978Z,50.24
2023-05-23T04:53:49.231Z,49.85
2023-05-23T04:54:20.728Z,50.03
2023-05-23T04:54:52.226Z,49.88
2023-05-23T04:55:23.922Z,49.88
2023-05-23T04:55:55.559Z,50.11
2023-05-23T04:56:27.129Z,50.03
2023-05-23T04:56:58.813Z,49.81
2023-05-23T04:57:30.378Z,50.07
2023-05-23T04:58:01.848Z,50.17
2023-05-23T04:58:33.353Z,50.07
2023-05-23T04:59:04.817Z,50.03
2023-05-23T04:59:36.289Z,50.09
2023-05-23T05:00:08.003Z,49.99
2023-05-23T05:00:39.711Z,49.92
2023-05-23T05:01:11.662Z,50.10
2023-05-23T05:01:43.278Z,49.87
2023-05-23T05:02:14.908Z,50.21
2023-05-23T05:02:46.425Z,49.71
2023-05-23T05:03:17.904Z,50.04
2023-05-23T05:03:49.434Z,49.84
2023-05-23T05:04:21.020Z,50.26
2023-05-23T05:04:52.476Z,50.08
2023-05-23T05:05:23.936Z,50.13
2023-05-23T05:05:55.418Z,49.87
2023-05-23T05:06:27.004Z,49.79
2023-05-23T05:06:58.567Z,49.65
2023-05-23T05:07:30.451Z,50.15
2023-05-23T05:08:01.982Z,49.73
2023-05-23T05:08:33.584Z,49.74
2023-05-23T05:09:05.136Z,49.84
2023-05-23T05:09:39.066Z,49.64
2023-05-23T05:10:10.697Z,49.84
2023-05-23T05:10:42.491Z,49.82
2023-05-23T05:11:14.127Z,49.80
2023-05-23T05:11:45.774Z,49.92
2023-05-23T05:12:17.188Z,49.69
2023-05-23T05:12:48.779Z,49.98
2023-05-23T05:13:20.252Z,50.06
2023-05-23T05:13:51.730Z,50.06
2023-05-23T05:14:23.252Z,49.98
2023-05-23T05:14:54.719Z,49.83
2023-05-23T05:15:26.251Z,49.78
2023-05-23T05:15:57.900Z,49.97
2023-05-23T05:16:29.610Z,49.56
2023-05-23T05:17:01.154Z,49.49
2023-05-23T05:17:32.708Z,49.74
2023-05-23T05:18:04.311Z,49.92
2023-05-23T05:18:35.787Z,49.77
2023-05-23T05:19:07.313Z,49.91
2023-05-23T05:19:38.899Z,49.85
2023-05-23T05:20:10.666Z,49.92
2023-05-23T05:20:42.307Z,49.96
2023-05-23T05:21:13.927Z,49.73
2023-05-23T05:21:45.419Z,49.51
2023-05-23T05:22:16.974Z,49.65
2023-05-23T05:22:50.810Z,50.00
2023-05-23T05:23:25.115Z,49.71
2023-05-23T05:23:56.625Z,49.91
2023-05-23T05:24:28.128Z,49.63
2023-05-23T05:24:59.638Z,49.73
2023-05-23T05:25:31.130Z,49.86
2023-05-23T05:26:02.539Z,49.57
2023-05-23T05:26:33.990Z,49.85
2023-05-23T05:27:05.674Z,49.72
2023-05-23T05:27:37.154Z,49.59
2023-05-23T05:28:08.760Z,49.49
2023-05-23T05:28:40.192Z,49.45
2023-05-23T05:29:11.668Z,49.82
2023-05-23T05:29:43.190Z,49.59
2023-05-23T05:30:14.698Z,49.43
2023-05-23T05:30:46.338Z,49.55
2023-05-23T05:31:18.091Z,49.69
2023-05-23T05:31:49.681Z,49.72
2023-05-23T05:32:21.136Z,49.81
2023-05-23T05:32:52.785Z,49.74
2023-05-23T05:33:24.301Z,49.37
2023-05-23T05:33:55.847Z,49.44
2023-05-23T05:34:27.302Z,49.53
2023-05-23T05:34:58.772Z,49.39
2023-05-23T05:35:33.793Z,49.84
2023-05-23T05:36:06.380Z,49.42
2023-05-23T05:36:37.864Z,49.50
2023-05-23T05:37:09.352Z,49.34
2023-05-23T05:37:40.889Z,49.42
2023-05-23T05:38:12.381Z,49.77
2023-05-23T05:38:43.858Z,49.62
2023-05-23T05:39:15.334Z,49.65
2023-05-23T05:39:46.810Z,49.65
2023-05-23T05:40:18.352Z,49.30
2023-05-23T05:40:49.872Z,49.57
2023-05-23T05:41:21.565Z,49.47
2023-05-23T05:41:53.233Z,49.60
2023-05-23T05:42:24.726Z,49.27
2023-05-23T05:42:56.274Z,49.52
2023-05-23T05:43:27.790Z,49.29
2023-05-23T05:43:59.362Z,49.64
2023-05-23T05:44:31.105Z,49.59
2023-05-23T05:45:02.727Z,49.67
2023-05-23T05:45:34.174Z,49.70
2023-05-23T05:46:05.786Z,49.53
2023-05-23T05:46:37.396Z,49.53
2023-05-23T05:47:08.934Z,49.24
2023-05-23T05:47:40.501Z,49.31
2023-05-23T05:48:12.391Z,49.53
2023-05-23T05:48:43.934Z,49.46
2023-05-23T05:49:15.447Z,49.54
2023-05-23T05:49:47.044Z,49.43
2023-05-23T05:50:18.511Z,49.66
2023-05-23T05:50:50.063Z,49.57
2023-05-23T05:51:21.545Z,49.63
2023-05-23T05:51:53.116Z,49.55
2023-05-23T05:52:24.573Z,49.39
2023-05-23T05:52:56.078Z,49.36
2023-05-23T05:53:27.580Z,49.60
2023-05-23T05:53:59.105Z,49.76
2023-05-23T05:54:30.643Z,49.59
2023-05-23T05:55:02.188Z,49.69
2023-05-23T05:55:34.073Z,49.22
2023-05-23T05:56:05.699Z,49.56
2023-05-23T05:56:37.174Z,49.59
2023-05-23T05:57:08.761Z,49.41
2023-05-23T05:57:40.653Z,49.58
2023-05-23T05:58:12.246Z,49.62
2023-05-23T05:58:43.805Z,49.63
2023-05-23T05:59:15.362Z,49.60
2023-05-23T05:59:46.893Z,49.56
2023-05-23T06:00:19.048Z,49.33
2023-05-23T06:00:50.566Z,49.31
2023-05-23T06:01:22.051Z,49.17
2023-05-23T06:01:53.608Z,49.42
2023-05-23T06:02:25.123Z,49.44
2023-05-23T06:02:56.864Z,49.61
2023-05-23T06:03:28.810Z,49.45
2023-05-23T06:04:00.711Z,49.65
2023-05-23T06:04:32.389Z,49.59
2023-05-23T06:05:04.078Z,49.54
2023-05-23T06:05:35.601Z,49.28
2023-05-23T06:06:07.147Z,49.14
2023-05-23T06:06:38.708Z,49.50
2023-05-23T06:07:10.375Z,49.36
2023-05-23T06:07:42.195Z,49.45
2023-05-23T06:08:13.617Z,49.18
2023-05-23T06:08:45.317Z,49.69
2023-05-23T06:09:16.828Z,49.71
2023-05-23T06:09:48.354Z,49.66
2023-05-23T06:10:19.904Z,49.64
2023-05-23T06:10:51.707Z,49.66
2023-05-23T06:11:23.128Z,49.65
2023-05-23T06:11:54.682Z,49.38
2023-05-23T06:12:26.137Z,49.49
2023-05-23T06:12:58.115Z,49.69
2023-05-23T06:13:29.650Z,49.59
2023-05-23T06:14:01.135Z,49.59
2023-05-23T06:14:32.899Z,49.36
2023-05-23T06:15:05.597Z,49.60
2023-05-23T06:15:37.155Z,49.20
2023-05-23T06:16:08.787Z,49.62
2023-05-23T06:16:40.563Z,49.06
2023-05-23T06:17:12.332Z,49.48
2023-05-23T06:17:43.889Z,49.29
2023-05-23T06:18:15.373Z,49.41
2023-05-23T06:18:46.977Z,49.47
2023-05-23T06:19:18.626Z,49.45
2023-05-23T06:19:50.110Z,49.21
2023-05-23T06:20:21.606Z,49.48
2023-05-23T06:20:53.182Z,49.49
2023-05-23T06:21:24.722Z,49.22
2023-05-23T06:21:56.370Z,49.42
2023-05-23T06:22:27.887Z,49.43
2023-05-23T06:22:59.365Z,49.19
2023-05-23T06:23:30.842Z,49.44
2023-05-23T06:24:02.292Z,49.24
2023-05-23T06:24:33.896Z,49.02
2023-05-23T06:25:05.661Z,49.17
2023-05-23T06:25:37.206Z,49.10
2023-05-23T06:26:08.656Z,49.26
2023-05-23T06:26:40.257Z,49.16
2023-05-23T06:27:11.712Z,49.25
2023-05-23T06:27:43.186Z,49.49
2023-05-23T06:28:14.685Z,49.35
2023-05-23T06:28:46.168Z,49.35
2023-05-23T06:29:17.674Z,49.50
2023-05-23T06:29:49.176Z,49.34
2023-05-23T06:30:20.612Z,49.50
2023-05-23T06:30:52.085Z,49.34
2023-05-23T06:31:23.666Z,49.44
2023-05-23T06:31:55.630Z,49.21
2023-05-23T06:32:27.227Z,49.33
2023-05-23T06:32:58.828Z,49.20
2023-05-23T06:33:30.409Z,49.38
2023-05-23T06:34:01.854Z,49.34
2023-05-23T06:34:33.617Z,49.49
2023-05-23T06:35:05.297Z,49.39
2023-05-23T06:35:36.798Z,49.50
2023-05-23T06:36:08.375Z,48.96
2023-05-23T06:36:39.844Z,49.35
2023-05-23T06:37:11.368Z,49.25
2023-05-23T06:37:42.823Z,49.19
2023-05-23T06:38:17.024Z,49.09
2023-05-23T06:38:49.333Z,49.39
2023-05-23T06:39:20.779Z,49.03
2023-05-23T06:39:52.358Z,49.28
2023-05-23T06:40:23.818Z,49.07
2023-05-23T06:40:55.485Z,48.76
2023-05-23T06:41:27.000Z,49.11
2023-05-23T06:41:58.753Z,48.74
2023-05-23T06:42:30.336Z,49.31
2023-05-23T06:43:01.801Z,49.20
2023-05-23T06:43:33.330Z,49.06
2023-05-23T06:44:04.826Z,49.16
2023-05-23T06:44:36.376Z,49.14
2023-05-23T06:45:08.246Z,49.18
2023-05-23T06:45:39.892Z,48.78
2023-05-23T06:46:11.458Z,49.16
2023-05-23T06:46:43.271Z,49.16
2023-05-23T06:47:14.813Z,49.22
2023-05-23T06:47:46.456Z,48.88
2023-05-23T06:48:18.078Z,49.30
2023-05-23T06:48:54.293Z,49.38
2023-05-23T06:49:31.047Z,49.19
2023-05-23T06:50:02.919Z,49.05
2023-05-23T06:50:36.948Z,49.12
2023-05-23T06:51:08.476Z,49.57
2023-05-23T06:51:40.093Z,49.25
2023-05-23T06:52:11.691Z,49.16
2023-05-23T06:52:43.170Z,49.49
2023-05-23T06:53:16.639Z,49.21